sensor_id;sensor_type;location;lat;lon;timestamp;P1;durP1;ratioP1;P2;durP2;ratioP2
46158;SDS011;31888;44.512;26.104;2023-07-31T00:01:08;17.98;;;13.77;;
46158;SDS011;31888;44.512;26.104;2023-07-31T00:03:32;17.40;;;13.60;;
46158;SDS011;31888;44.512;26.104;2023-07-31T00:05:56;18.90;;;13.68;;
46158;SDS011;31888;44.512;26.104;2023-07-31T00:08:21;17.33;;;15.38;;
46158;SDS011;31888;44.512;26.104;2023-07-31T00:10:45;26.92;;;15.38;;
46158;SDS011;31888;44.512;26.104;2023-07-31T00:13:09;19.23;;;16.38;;
46158;SDS011;31888;44.512;26.104;2023-07-31T00:15:34;18.48;;;16.65;;
46158;SDS011;31888;44.512;26.104;2023-07-31T00:17:57;20.17;;;17.83;;
46158;SDS011;31888;44.512;26.104;2023-07-31T00:20:22;23.35;;;17.35;;
46158;SDS011;31888;44.512;26.104;2023-07-31T00:22:46;25.35;;;16.85;;
46158;SDS011;31888;44.512;26.104;2023-07-31T00:25:12;20.60;;;16.20;;
46158;SDS011;31888;44.512;26.104;2023-07-31T00:27:35;23.30;;;15.93;;
46158;SDS011;31888;44.512;26.104;2023-07-31T00:29:59;16.67;;;14.65;;
46158;SDS011;31888;44.512;26.104;2023-07-31T00:32:23;25.05;;;14.25;;
46158;SDS011;31888;44.512;26.104;2023-07-31T00:34:47;26.60;;;15.48;;
46158;SDS011;31888;44.512;26.104;2023-07-31T00:37:11;16.02;;;14.05;;
46158;SDS011;31888;44.512;26.104;2023-07-31T00:39:35;17.85;;;15.20;;
46158;SDS011;31888;44.512;26.104;2023-07-31T00:42:01;18.02;;;16.13;;
46158;SDS011;31888;44.512;26.104;2023-07-31T00:44:26;17.73;;;16.08;;
46158;SDS011;31888;44.512;26.104;2023-07-31T00:46:50;18.83;;;16.67;;
46158;SDS011;31888;44.512;26.104;2023-07-31T00:49:14;17.95;;;16.10;;
46158;SDS011;31888;44.512;26.104;2023-07-31T00:51:38;17.40;;;15.27;;
46158;SDS011;31888;44.512;26.104;2023-07-31T00:54:02;23.73;;;15.75;;
46158;SDS011;31888;44.512;26.104;2023-07-31T00:56:27;16.30;;;14.55;;
46158;SDS011;31888;44.512;26.104;2023-07-31T00:58:53;17.80;;;14.02;;
46158;SDS011;31888;44.512;26.104;2023-07-31T01:01:17;20.15;;;15.02;;
46158;SDS011;31888;44.512;26.104;2023-07-31T01:03:41;16.23;;;14.65;;
46158;SDS011;31888;44.512;26.104;2023-07-31T01:06:09;16.80;;;14.73;;
46158;SDS011;31888;44.512;26.104;2023-07-31T01:08:40;21.23;;;14.27;;
46158;SDS011;31888;44.512;26.104;2023-07-31T01:11:09;15.20;;;13.63;;
46158;SDS011;31888;44.512;26.104;2023-07-31T01:13:38;17.13;;;14.15;;
46158;SDS011;31888;44.512;26.104;2023-07-31T01:16:03;16.08;;;14.48;;
46158;SDS011;31888;44.512;26.104;2023-07-31T01:18:27;18.75;;;14.98;;
46158;SDS011;31888;44.512;26.104;2023-07-31T01:20:53;18.20;;;13.88;;
46158;SDS011;31888;44.512;26.104;2023-07-31T01:23:41;18.05;;;14.93;;
46158;SDS011;31888;44.512;26.104;2023-07-31T01:26:20;16.80;;;15.10;;
46158;SDS011;31888;44.512;26.104;2023-07-31T01:28:49;17.92;;;14.68;;
46158;SDS011;31888;44.512;26.104;2023-07-31T01:31:24;24.15;;;14.60;;
46158;SDS011;31888;44.512;26.104;2023-07-31T01:33:49;18.83;;;15.25;;
46158;SDS011;31888;44.512;26.104;2023-07-31T01:36:17;18.83;;;15.88;;
46158;SDS011;31888;44.512;26.104;2023-07-31T01:38:41;18.15;;;15.10;;
46158;SDS011;31888;44.512;26.104;2023-07-31T01:41:04;16.30;;;14.68;;
46158;SDS011;31888;44.512;26.104;2023-07-31T01:43:30;17.05;;;15.25;;
46158;SDS011;31888;44.512;26.104;2023-07-31T01:45:54;18.08;;;16.23;;
46158;SDS011;31888;44.512;26.104;2023-07-31T01:48:18;18.15;;;16.33;;
46158;SDS011;31888;44.512;26.104;2023-07-31T01:50:42;20.05;;;16.42;;
46158;SDS011;31888;44.512;26.104;2023-07-31T01:53:06;21.33;;;16.50;;
46158;SDS011;31888;44.512;26.104;2023-07-31T01:55:30;18.42;;;15.95;;
46158;SDS011;31888;44.512;26.104;2023-07-31T01:57:54;19.20;;;16.70;;
46158;SDS011;31888;44.512;26.104;2023-07-31T02:00:19;18.00;;;15.82;;
46158;SDS011;31888;44.512;26.104;2023-07-31T02:02:43;18.27;;;16.35;;
46158;SDS011;31888;44.512;26.104;2023-07-31T02:05:07;22.65;;;18.42;;
46158;SDS011;31888;44.512;26.104;2023-07-31T02:07:32;20.65;;;18.08;;
46158;SDS011;31888;44.512;26.104;2023-07-31T02:09:55;24.25;;;20.05;;
46158;SDS011;31888;44.512;26.104;2023-07-31T02:12:19;24.80;;;20.05;;
46158;SDS011;31888;44.512;26.104;2023-07-31T02:14:43;23.42;;;20.00;;
46158;SDS011;31888;44.512;26.104;2023-07-31T02:17:08;29.00;;;22.35;;
46158;SDS011;31888;44.512;26.104;2023-07-31T02:19:32;23.58;;;20.25;;
46158;SDS011;31888;44.512;26.104;2023-07-31T02:21:56;30.63;;;22.30;;
46158;SDS011;31888;44.512;26.104;2023-07-31T02:24:20;26.20;;;21.02;;
46158;SDS011;31888;44.512;26.104;2023-07-31T02:26:43;25.33;;;22.17;;
46158;SDS011;31888;44.512;26.104;2023-07-31T02:29:07;24.58;;;20.98;;
46158;SDS011;31888;44.512;26.104;2023-07-31T02:31:31;25.52;;;21.30;;
46158;SDS011;31888;44.512;26.104;2023-07-31T02:33:57;26.02;;;23.30;;
46158;SDS011;31888;44.512;26.104;2023-07-31T02:36:20;26.88;;;21.67;;
46158;SDS011;31888;44.512;26.104;2023-07-31T02:38:44;26.52;;;21.20;;
46158;SDS011;31888;44.512;26.104;2023-07-31T02:41:08;24.23;;;20.95;;
46158;SDS011;31888;44.512;26.104;2023-07-31T02:43:32;27.75;;;20.92;;
46158;SDS011;31888;44.512;26.104;2023-07-31T02:45:56;23.52;;;20.08;;
46158;SDS011;31888;44.512;26.104;2023-07-31T02:48:21;23.67;;;18.60;;
46158;SDS011;31888;44.512;26.104;2023-07-31T02:50:47;25.58;;;20.40;;
46158;SDS011;31888;44.512;26.104;2023-07-31T02:53:11;24.05;;;19.92;;
46158;SDS011;31888;44.512;26.104;2023-07-31T02:55:34;24.77;;;18.25;;
46158;SDS011;31888;44.512;26.104;2023-07-31T02:57:58;22.13;;;18.77;;
46158;SDS011;31888;44.512;26.104;2023-07-31T03:00:22;20.27;;;18.08;;
46158;SDS011;31888;44.512;26.104;2023-07-31T03:02:46;22.00;;;18.45;;
46158;SDS011;31888;44.512;26.104;2023-07-31T03:05:09;19.67;;;14.85;;
46158;SDS011;31888;44.512;26.104;2023-07-31T03:07:35;22.85;;;15.52;;
46158;SDS011;31888;44.512;26.104;2023-07-31T03:09:58;18.38;;;14.88;;
46158;SDS011;31888;44.512;26.104;2023-07-31T03:12:23;23.83;;;14.93;;
46158;SDS011;31888;44.512;26.104;2023-07-31T03:14:46;17.05;;;13.65;;
46158;SDS011;31888;44.512;26.104;2023-07-31T03:17:10;17.77;;;13.65;;
46158;SDS011;31888;44.512;26.104;2023-07-31T03:19:34;17.75;;;12.05;;
46158;SDS011;31888;44.512;26.104;2023-07-31T03:21:58;21.73;;;13.75;;
46158;SDS011;31888;44.512;26.104;2023-07-31T03:24:25;15.45;;;13.02;;
46158;SDS011;31888;44.512;26.104;2023-07-31T03:26:48;16.40;;;12.77;;
46158;SDS011;31888;44.512;26.104;2023-07-31T03:29:12;17.00;;;12.93;;
46158;SDS011;31888;44.512;26.104;2023-07-31T03:31:36;16.33;;;13.25;;
46158;SDS011;31888;44.512;26.104;2023-07-31T03:34:00;17.80;;;13.80;;
46158;SDS011;31888;44.512;26.104;2023-07-31T03:36:24;20.02;;;16.27;;
46158;SDS011;31888;44.512;26.104;2023-07-31T03:38:48;21.83;;;15.50;;
46158;SDS011;31888;44.512;26.104;2023-07-31T03:41:13;23.20;;;18.35;;
46158;SDS011;31888;44.512;26.104;2023-07-31T03:43:39;22.63;;;17.65;;
46158;SDS011;31888;44.512;26.104;2023-07-31T03:46:03;23.98;;;20.08;;
46158;SDS011;31888;44.512;26.104;2023-07-31T03:48:27;24.02;;;19.15;;
46158;SDS011;31888;44.512;26.104;2023-07-31T03:50:50;19.95;;;17.85;;
46158;SDS011;31888;44.512;26.104;2023-07-31T03:53:14;22.48;;;19.20;;
46158;SDS011;31888;44.512;26.104;2023-07-31T03:55:38;22.63;;;18.38;;
46158;SDS011;31888;44.512;26.104;2023-07-31T03:58:03;23.38;;;19.80;;
46158;SDS011;31888;44.512;26.104;2023-07-31T04:00:27;22.25;;;19.55;;
46158;SDS011;31888;44.512;26.104;2023-07-31T04:02:51;20.83;;;17.48;;
46158;SDS011;31888;44.512;26.104;2023-07-31T04:05:15;21.35;;;18.92;;
46158;SDS011;31888;44.512;26.104;2023-07-31T04:07:39;24.95;;;20.85;;
46158;SDS011;31888;44.512;26.104;2023-07-31T04:10:03;27.00;;;19.92;;
46158;SDS011;31888;44.512;26.104;2023-07-31T04:12:27;23.40;;;20.10;;
46158;SDS011;31888;44.512;26.104;2023-07-31T04:14:52;22.75;;;20.17;;
46158;SDS011;31888;44.512;26.104;2023-07-31T04:17:17;25.10;;;19.23;;
46158;SDS011;31888;44.512;26.104;2023-07-31T04:19:41;18.20;;;14.68;;
46158;SDS011;31888;44.512;26.104;2023-07-31T04:22:04;19.15;;;16.13;;
46158;SDS011;31888;44.512;26.104;2023-07-31T04:24:28;15.20;;;11.43;;
46158;SDS011;31888;44.512;26.104;2023-07-31T04:26:52;18.38;;;14.70;;
46158;SDS011;31888;44.512;26.104;2023-07-31T04:29:16;14.02;;;12.25;;
46158;SDS011;31888;44.512;26.104;2023-07-31T04:31:42;13.90;;;12.30;;
46158;SDS011;31888;44.512;26.104;2023-07-31T04:34:05;18.58;;;12.23;;
46158;SDS011;31888;44.512;26.104;2023-07-31T04:36:29;16.75;;;11.70;;
46158;SDS011;31888;44.512;26.104;2023-07-31T04:38:53;15.30;;;12.10;;
46158;SDS011;31888;44.512;26.104;2023-07-31T04:41:17;12.55;;;10.48;;
46158;SDS011;31888;44.512;26.104;2023-07-31T04:43:41;14.98;;;10.80;;
46158;SDS011;31888;44.512;26.104;2023-07-31T04:46:05;15.02;;;11.60;;
46158;SDS011;31888;44.512;26.104;2023-07-31T04:48:30;14.25;;;11.13;;
46158;SDS011;31888;44.512;26.104;2023-07-31T04:50:54;13.32;;;10.38;;
46158;SDS011;31888;44.512;26.104;2023-07-31T04:53:18;12.13;;;10.60;;
46158;SDS011;31888;44.512;26.104;2023-07-31T04:55:42;14.93;;;10.90;;
46158;SDS011;31888;44.512;26.104;2023-07-31T04:58:06;20.35;;;11.27;;
46158;SDS011;31888;44.512;26.104;2023-07-31T05:00:30;11.55;;;10.32;;
46158;SDS011;31888;44.512;26.104;2023-07-31T05:02:53;14.90;;;10.38;;
46158;SDS011;31888;44.512;26.104;2023-07-31T05:05:19;17.15;;;11.88;;
46158;SDS011;31888;44.512;26.104;2023-07-31T05:07:42;16.65;;;11.02;;
46158;SDS011;31888;44.512;26.104;2023-07-31T05:10:07;14.98;;;11.48;;
46158;SDS011;31888;44.512;26.104;2023-07-31T05:12:31;15.73;;;11.02;;
46158;SDS011;31888;44.512;26.104;2023-07-31T05:14:55;15.45;;;10.48;;
46158;SDS011;31888;44.512;26.104;2023-07-31T05:17:19;14.18;;;11.20;;
46158;SDS011;31888;44.512;26.104;2023-07-31T05:19:42;15.75;;;12.18;;
46158;SDS011;31888;44.512;26.104;2023-07-31T05:22:08;14.05;;;10.88;;
46158;SDS011;31888;44.512;26.104;2023-07-31T05:24:31;14.43;;;11.70;;
46158;SDS011;31888;44.512;26.104;2023-07-31T05:26:55;14.57;;;10.65;;
46158;SDS011;31888;44.512;26.104;2023-07-31T05:29:19;19.48;;;14.15;;
46158;SDS011;31888;44.512;26.104;2023-07-31T05:31:43;16.10;;;13.07;;
46158;SDS011;31888;44.512;26.104;2023-07-31T05:34:07;13.27;;;10.27;;
46158;SDS011;31888;44.512;26.104;2023-07-31T05:36:31;14.80;;;11.07;;
46158;SDS011;31888;44.512;26.104;2023-07-31T05:38:56;11.88;;;10.50;;
46158;SDS011;31888;44.512;26.104;2023-07-31T05:41:20;15.93;;;11.25;;
46158;SDS011;31888;44.512;26.104;2023-07-31T05:43:43;15.52;;;11.63;;
46158;SDS011;31888;44.512;26.104;2023-07-31T05:46:07;14.43;;;11.52;;
46158;SDS011;31888;44.512;26.104;2023-07-31T05:48:31;12.38;;;11.10;;
46158;SDS011;31888;44.512;26.104;2023-07-31T05:50:56;21.83;;;17.45;;
46158;SDS011;31888;44.512;26.104;2023-07-31T05:53:19;12.93;;;11.00;;
46158;SDS011;31888;44.512;26.104;2023-07-31T05:55:44;12.00;;;10.63;;
46158;SDS011;31888;44.512;26.104;2023-07-31T05:58:08;11.63;;;9.95;;
46158;SDS011;31888;44.512;26.104;2023-07-31T06:00:32;14.35;;;11.40;;
46158;SDS011;31888;44.512;26.104;2023-07-31T06:02:56;16.10;;;10.73;;
46158;SDS011;31888;44.512;26.104;2023-07-31T06:05:20;14.23;;;10.93;;
46158;SDS011;31888;44.512;26.104;2023-07-31T06:07:44;12.90;;;10.43;;
46158;SDS011;31888;44.512;26.104;2023-07-31T06:10:08;12.93;;;10.68;;
46158;SDS011;31888;44.512;26.104;2023-07-31T06:12:33;11.77;;;10.30;;
46158;SDS011;31888;44.512;26.104;2023-07-31T06:14:57;12.75;;;10.57;;
46158;SDS011;31888;44.512;26.104;2023-07-31T06:17:21;11.73;;;10.25;;
46158;SDS011;31888;44.512;26.104;2023-07-31T06:19:45;15.50;;;10.77;;
46158;SDS011;31888;44.512;26.104;2023-07-31T06:22:09;10.95;;;9.82;;
46158;SDS011;31888;44.512;26.104;2023-07-31T06:24:33;13.95;;;10.38;;
46158;SDS011;31888;44.512;26.104;2023-07-31T06:26:57;13.07;;;9.77;;
46158;SDS011;31888;44.512;26.104;2023-07-31T06:29:22;13.38;;;10.45;;
46158;SDS011;31888;44.512;26.104;2023-07-31T06:31:46;13.57;;;10.43;;
46158;SDS011;31888;44.512;26.104;2023-07-31T06:34:10;11.57;;;9.45;;
46158;SDS011;31888;44.512;26.104;2023-07-31T06:36:33;12.63;;;10.10;;
46158;SDS011;31888;44.512;26.104;2023-07-31T06:38:58;16.40;;;9.13;;
46158;SDS011;31888;44.512;26.104;2023-07-31T06:41:22;12.85;;;9.32;;
46158;SDS011;31888;44.512;26.104;2023-07-31T06:43:46;10.75;;;9.13;;
46158;SDS011;31888;44.512;26.104;2023-07-31T06:46:11;11.30;;;8.70;;
46158;SDS011;31888;44.512;26.104;2023-07-31T06:48:35;10.57;;;8.73;;
46158;SDS011;31888;44.512;26.104;2023-07-31T06:51:00;13.10;;;9.18;;
46158;SDS011;31888;44.512;26.104;2023-07-31T06:53:23;10.48;;;9.00;;
46158;SDS011;31888;44.512;26.104;2023-07-31T06:55:47;13.30;;;9.50;;
46158;SDS011;31888;44.512;26.104;2023-07-31T06:58:13;14.65;;;9.52;;
46158;SDS011;31888;44.512;26.104;2023-07-31T07:00:37;10.40;;;8.80;;
46158;SDS011;31888;44.512;26.104;2023-07-31T07:03:02;12.77;;;8.50;;
46158;SDS011;31888;44.512;26.104;2023-07-31T07:05:26;14.65;;;8.38;;
46158;SDS011;31888;44.512;26.104;2023-07-31T07:07:50;11.82;;;8.27;;
46158;SDS011;31888;44.512;26.104;2023-07-31T07:10:14;11.50;;;8.55;;
46158;SDS011;31888;44.512;26.104;2023-07-31T07:12:38;15.05;;;8.23;;
46158;SDS011;31888;44.512;26.104;2023-07-31T07:15:02;10.13;;;7.60;;
46158;SDS011;31888;44.512;26.104;2023-07-31T07:17:27;8.90;;;8.02;;
46158;SDS011;31888;44.512;26.104;2023-07-31T07:19:54;12.38;;;8.80;;
46158;SDS011;31888;44.512;26.104;2023-07-31T07:22:18;11.05;;;8.35;;
46158;SDS011;31888;44.512;26.104;2023-07-31T07:24:43;12.10;;;8.82;;
46158;SDS011;31888;44.512;26.104;2023-07-31T07:27:06;10.80;;;8.35;;
46158;SDS011;31888;44.512;26.104;2023-07-31T07:29:30;11.20;;;7.93;;
46158;SDS011;31888;44.512;26.104;2023-07-31T07:31:54;10.85;;;7.85;;
46158;SDS011;31888;44.512;26.104;2023-07-31T07:34:18;9.80;;;8.68;;
46158;SDS011;31888;44.512;26.104;2023-07-31T07:36:46;14.70;;;8.43;;
46158;SDS011;31888;44.512;26.104;2023-07-31T07:39:11;10.10;;;8.43;;
46158;SDS011;31888;44.512;26.104;2023-07-31T07:41:34;9.85;;;7.88;;
46158;SDS011;31888;44.512;26.104;2023-07-31T07:43:59;8.75;;;7.85;;
46158;SDS011;31888;44.512;26.104;2023-07-31T07:46:23;7.88;;;7.03;;
46158;SDS011;31888;44.512;26.104;2023-07-31T07:48:46;9.52;;;7.78;;
46158;SDS011;31888;44.512;26.104;2023-07-31T07:51:10;9.82;;;7.35;;
46158;SDS011;31888;44.512;26.104;2023-07-31T07:53:36;8.98;;;7.35;;
46158;SDS011;31888;44.512;26.104;2023-07-31T07:55:59;8.27;;;7.45;;
46158;SDS011;31888;44.512;26.104;2023-07-31T07:58:23;8.38;;;7.05;;
46158;SDS011;31888;44.512;26.104;2023-07-31T08:00:50;10.48;;;7.20;;
46158;SDS011;31888;44.512;26.104;2023-07-31T08:03:14;9.18;;;6.95;;
46158;SDS011;31888;44.512;26.104;2023-07-31T08:05:39;7.97;;;6.10;;
46158;SDS011;31888;44.512;26.104;2023-07-31T08:08:04;11.52;;;7.60;;
46158;SDS011;31888;44.512;26.104;2023-07-31T08:10:29;8.40;;;6.53;;
46158;SDS011;31888;44.512;26.104;2023-07-31T08:12:53;7.80;;;6.45;;
46158;SDS011;31888;44.512;26.104;2023-07-31T08:15:16;8.20;;;6.88;;
46158;SDS011;31888;44.512;26.104;2023-07-31T08:17:40;8.95;;;7.45;;
46158;SDS011;31888;44.512;26.104;2023-07-31T08:20:05;9.43;;;7.03;;
46158;SDS011;31888;44.512;26.104;2023-07-31T08:22:30;8.30;;;7.28;;
46158;SDS011;31888;44.512;26.104;2023-07-31T08:24:54;8.35;;;7.20;;
46158;SDS011;31888;44.512;26.104;2023-07-31T08:27:20;12.45;;;7.60;;
46158;SDS011;31888;44.512;26.104;2023-07-31T08:29:43;7.60;;;6.90;;
46158;SDS011;31888;44.512;26.104;2023-07-31T08:32:07;9.68;;;8.02;;
46158;SDS011;31888;44.512;26.104;2023-07-31T08:34:31;10.30;;;9.05;;
46158;SDS011;31888;44.512;26.104;2023-07-31T08:36:55;11.85;;;8.30;;
46158;SDS011;31888;44.512;26.104;2023-07-31T08:39:18;11.57;;;8.80;;
46158;SDS011;31888;44.512;26.104;2023-07-31T08:41:42;13.90;;;8.93;;
46158;SDS011;31888;44.512;26.104;2023-07-31T08:44:07;12.55;;;9.73;;
46158;SDS011;31888;44.512;26.104;2023-07-31T08:46:33;11.48;;;9.57;;
46158;SDS011;31888;44.512;26.104;2023-07-31T08:48:57;12.23;;;8.90;;
46158;SDS011;31888;44.512;26.104;2023-07-31T08:51:22;17.23;;;9.55;;
46158;SDS011;31888;44.512;26.104;2023-07-31T08:53:46;11.88;;;9.30;;
46158;SDS011;31888;44.512;26.104;2023-07-31T08:56:11;11.20;;;9.57;;
46158;SDS011;31888;44.512;26.104;2023-07-31T08:58:36;10.23;;;9.07;;
46158;SDS011;31888;44.512;26.104;2023-07-31T09:01:03;10.40;;;9.27;;
46158;SDS011;31888;44.512;26.104;2023-07-31T09:03:28;9.98;;;8.98;;
46158;SDS011;31888;44.512;26.104;2023-07-31T09:05:55;14.38;;;9.65;;
46158;SDS011;31888;44.512;26.104;2023-07-31T09:08:21;13.63;;;9.70;;
46158;SDS011;31888;44.512;26.104;2023-07-31T09:10:45;12.95;;;9.98;;
46158;SDS011;31888;44.512;26.104;2023-07-31T09:13:09;10.90;;;9.75;;
46158;SDS011;31888;44.512;26.104;2023-07-31T09:15:34;11.02;;;9.82;;
46158;SDS011;31888;44.512;26.104;2023-07-31T09:18:01;10.60;;;9.40;;
46158;SDS011;31888;44.512;26.104;2023-07-31T09:20:25;10.00;;;8.68;;
46158;SDS011;31888;44.512;26.104;2023-07-31T09:22:49;11.48;;;9.52;;
46158;SDS011;31888;44.512;26.104;2023-07-31T09:25:16;10.60;;;9.50;;
46158;SDS011;31888;44.512;26.104;2023-07-31T09:27:45;10.40;;;9.30;;
46158;SDS011;31888;44.512;26.104;2023-07-31T09:32:34;11.93;;;8.82;;
46158;SDS011;31888;44.512;26.104;2023-07-31T09:35:01;9.25;;;8.35;;
46158;SDS011;31888;44.512;26.104;2023-07-31T09:37:36;9.43;;;8.55;;
46158;SDS011;31888;44.512;26.104;2023-07-31T09:40:00;10.10;;;8.48;;
46158;SDS011;31888;44.512;26.104;2023-07-31T09:42:24;9.45;;;8.45;;
46158;SDS011;31888;44.512;26.104;2023-07-31T09:44:51;9.23;;;8.20;;
46158;SDS011;31888;44.512;26.104;2023-07-31T09:47:21;9.32;;;8.43;;
46158;SDS011;31888;44.512;26.104;2023-07-31T09:49:47;11.38;;;8.52;;
46158;SDS011;31888;44.512;26.104;2023-07-31T09:52:16;9.80;;;8.77;;
46158;SDS011;31888;44.512;26.104;2023-07-31T09:54:40;12.48;;;9.05;;
46158;SDS011;31888;44.512;26.104;2023-07-31T09:57:04;9.10;;;7.95;;
46158;SDS011;31888;44.512;26.104;2023-07-31T09:59:28;9.35;;;8.35;;
46158;SDS011;31888;44.512;26.104;2023-07-31T10:01:51;9.30;;;8.23;;
46158;SDS011;31888;44.512;26.104;2023-07-31T10:04:18;10.10;;;8.68;;
46158;SDS011;31888;44.512;26.104;2023-07-31T10:06:49;9.80;;;8.63;;
46158;SDS011;31888;44.512;26.104;2023-07-31T10:09:15;9.13;;;8.20;;
46158;SDS011;31888;44.512;26.104;2023-07-31T10:11:45;9.75;;;8.10;;
46158;SDS011;31888;44.512;26.104;2023-07-31T10:14:13;8.50;;;7.60;;
46158;SDS011;31888;44.512;26.104;2023-07-31T10:16:37;9.30;;;7.53;;
46158;SDS011;31888;44.512;26.104;2023-07-31T10:19:03;8.95;;;8.00;;
46158;SDS011;31888;44.512;26.104;2023-07-31T10:21:30;10.70;;;7.97;;
46158;SDS011;31888;44.512;26.104;2023-07-31T10:23:56;10.88;;;8.52;;
46158;SDS011;31888;44.512;26.104;2023-07-31T10:26:22;10.73;;;8.48;;
46158;SDS011;31888;44.512;26.104;2023-07-31T10:28:48;8.20;;;7.40;;
46158;SDS011;31888;44.512;26.104;2023-07-31T10:31:13;9.30;;;8.25;;
46158;SDS011;31888;44.512;26.104;2023-07-31T10:33:38;9.30;;;7.72;;
46158;SDS011;31888;44.512;26.104;2023-07-31T10:36:12;8.73;;;7.63;;
46158;SDS011;31888;44.512;26.104;2023-07-31T10:38:37;8.32;;;7.45;;
46158;SDS011;31888;44.512;26.104;2023-07-31T10:41:07;9.63;;;8.43;;
46158;SDS011;31888;44.512;26.104;2023-07-31T10:43:33;8.75;;;7.07;;
46158;SDS011;31888;44.512;26.104;2023-07-31T10:45:57;8.73;;;7.82;;
46158;SDS011;31888;44.512;26.104;2023-07-31T10:48:21;8.07;;;7.20;;
46158;SDS011;31888;44.512;26.104;2023-07-31T10:50:47;8.75;;;7.70;;
46158;SDS011;31888;44.512;26.104;2023-07-31T10:53:22;8.23;;;7.43;;
46158;SDS011;31888;44.512;26.104;2023-07-31T10:55:46;8.63;;;7.75;;
46158;SDS011;31888;44.512;26.104;2023-07-31T10:58:13;10.07;;;7.97;;
46158;SDS011;31888;44.512;26.104;2023-07-31T11:00:43;8.73;;;7.82;;
46158;SDS011;31888;44.512;26.104;2023-07-31T11:03:07;8.48;;;7.65;;
46158;SDS011;31888;44.512;26.104;2023-07-31T11:05:47;9.07;;;8.18;;
46158;SDS011;31888;44.512;26.104;2023-07-31T11:08:16;8.80;;;7.90;;
46158;SDS011;31888;44.512;26.104;2023-07-31T11:10:41;10.43;;;8.63;;
46158;SDS011;31888;44.512;26.104;2023-07-31T11:13:06;10.13;;;8.27;;
46158;SDS011;31888;44.512;26.104;2023-07-31T11:15:30;10.80;;;8.20;;
46158;SDS011;31888;44.512;26.104;2023-07-31T11:17:55;9.68;;;7.60;;
46158;SDS011;31888;44.512;26.104;2023-07-31T11:20:20;13.43;;;8.00;;
46158;SDS011;31888;44.512;26.104;2023-07-31T11:22:43;9.68;;;8.00;;
46158;SDS011;31888;44.512;26.104;2023-07-31T11:25:07;9.48;;;8.35;;
46158;SDS011;31888;44.512;26.104;2023-07-31T11:27:38;10.68;;;8.63;;
46158;SDS011;31888;44.512;26.104;2023-07-31T11:30:03;10.50;;;8.32;;
46158;SDS011;31888;44.512;26.104;2023-07-31T11:32:27;8.93;;;7.93;;
46158;SDS011;31888;44.512;26.104;2023-07-31T11:34:53;10.88;;;8.40;;
46158;SDS011;31888;44.512;26.104;2023-07-31T11:37:17;12.50;;;8.65;;
46158;SDS011;31888;44.512;26.104;2023-07-31T11:39:41;9.15;;;8.25;;
46158;SDS011;31888;44.512;26.104;2023-07-31T11:42:05;13.70;;;8.23;;
46158;SDS011;31888;44.512;26.104;2023-07-31T11:44:37;9.02;;;8.13;;
46158;SDS011;31888;44.512;26.104;2023-07-31T11:47:01;8.85;;;7.95;;
46158;SDS011;31888;44.512;26.104;2023-07-31T11:49:26;9.25;;;8.10;;
46158;SDS011;31888;44.512;26.104;2023-07-31T11:51:51;10.80;;;7.60;;
46158;SDS011;31888;44.512;26.104;2023-07-31T11:54:15;8.43;;;7.07;;
46158;SDS011;31888;44.512;26.104;2023-07-31T11:56:39;9.18;;;7.80;;
46158;SDS011;31888;44.512;26.104;2023-07-31T11:59:04;9.07;;;7.43;;
46158;SDS011;31888;44.512;26.104;2023-07-31T12:01:30;8.93;;;8.02;;
46158;SDS011;31888;44.512;26.104;2023-07-31T12:03:54;10.68;;;8.73;;
46158;SDS011;31888;44.512;26.104;2023-07-31T12:06:20;8.55;;;7.75;;
46158;SDS011;31888;44.512;26.104;2023-07-31T12:08:45;9.10;;;7.72;;
46158;SDS011;31888;44.512;26.104;2023-07-31T12:11:09;10.02;;;8.00;;
46158;SDS011;31888;44.512;26.104;2023-07-31T12:13:33;8.73;;;7.90;;
46158;SDS011;31888;44.512;26.104;2023-07-31T12:15:58;9.77;;;8.75;;
46158;SDS011;31888;44.512;26.104;2023-07-31T12:18:24;8.98;;;7.68;;
46158;SDS011;31888;44.512;26.104;2023-07-31T12:20:49;10.73;;;7.32;;
46158;SDS011;31888;44.512;26.104;2023-07-31T12:23:17;7.55;;;6.85;;
46158;SDS011;31888;44.512;26.104;2023-07-31T12:25:54;9.18;;;7.35;;
46158;SDS011;31888;44.512;26.104;2023-07-31T12:28:23;7.88;;;7.18;;
46158;SDS011;31888;44.512;26.104;2023-07-31T12:30:47;8.40;;;7.07;;
46158;SDS011;31888;44.512;26.104;2023-07-31T12:33:14;7.82;;;6.93;;
46158;SDS011;31888;44.512;26.104;2023-07-31T12:35:40;8.02;;;6.47;;
46158;SDS011;31888;44.512;26.104;2023-07-31T12:38:05;7.55;;;6.45;;
46158;SDS011;31888;44.512;26.104;2023-07-31T12:40:29;10.10;;;6.88;;
46158;SDS011;31888;44.512;26.104;2023-07-31T12:42:55;7.97;;;7.18;;
46158;SDS011;31888;44.512;26.104;2023-07-31T12:45:19;7.53;;;6.82;;
46158;SDS011;31888;44.512;26.104;2023-07-31T12:47:45;7.07;;;6.38;;
46158;SDS011;31888;44.512;26.104;2023-07-31T12:50:09;8.43;;;7.18;;
46158;SDS011;31888;44.512;26.104;2023-07-31T12:52:33;8.02;;;7.22;;
46158;SDS011;31888;44.512;26.104;2023-07-31T12:54:57;8.38;;;6.65;;
46158;SDS011;31888;44.512;26.104;2023-07-31T12:57:21;8.80;;;7.05;;
46158;SDS011;31888;44.512;26.104;2023-07-31T12:59:46;7.55;;;6.85;;
46158;SDS011;31888;44.512;26.104;2023-07-31T13:02:10;7.30;;;6.53;;
46158;SDS011;31888;44.512;26.104;2023-07-31T13:04:34;7.78;;;6.70;;
46158;SDS011;31888;44.512;26.104;2023-07-31T13:06:58;8.07;;;6.32;;
46158;SDS011;31888;44.512;26.104;2023-07-31T13:09:22;7.80;;;6.88;;
46158;SDS011;31888;44.512;26.104;2023-07-31T13:11:45;12.07;;;6.60;;
46158;SDS011;31888;44.512;26.104;2023-07-31T13:14:09;7.13;;;6.38;;
46158;SDS011;31888;44.512;26.104;2023-07-31T13:16:35;7.85;;;6.32;;
46158;SDS011;31888;44.512;26.104;2023-07-31T13:19:00;7.65;;;6.88;;
46158;SDS011;31888;44.512;26.104;2023-07-31T13:21:24;7.07;;;6.40;;
46158;SDS011;31888;44.512;26.104;2023-07-31T13:23:48;6.82;;;6.18;;
46158;SDS011;31888;44.512;26.104;2023-07-31T13:26:12;6.70;;;5.90;;
46158;SDS011;31888;44.512;26.104;2023-07-31T13:28:35;7.38;;;6.68;;
46158;SDS011;31888;44.512;26.104;2023-07-31T13:30:59;8.60;;;6.93;;
46158;SDS011;31888;44.512;26.104;2023-07-31T13:33:24;10.85;;;6.80;;
46158;SDS011;31888;44.512;26.104;2023-07-31T13:35:59;7.45;;;6.75;;
46158;SDS011;31888;44.512;26.104;2023-07-31T13:38:23;8.70;;;7.85;;
46158;SDS011;31888;44.512;26.104;2023-07-31T13:40:47;8.07;;;7.03;;
46158;SDS011;31888;44.512;26.104;2023-07-31T13:43:10;7.07;;;6.32;;
46158;SDS011;31888;44.512;26.104;2023-07-31T13:45:34;7.10;;;6.40;;
46158;SDS011;31888;44.512;26.104;2023-07-31T13:47:58;6.75;;;6.07;;
46158;SDS011;31888;44.512;26.104;2023-07-31T13:50:23;8.20;;;6.13;;
46158;SDS011;31888;44.512;26.104;2023-07-31T13:52:47;8.63;;;6.00;;
46158;SDS011;31888;44.512;26.104;2023-07-31T13:55:11;7.20;;;6.03;;
46158;SDS011;31888;44.512;26.104;2023-07-31T13:57:35;6.78;;;5.93;;
46158;SDS011;31888;44.512;26.104;2023-07-31T13:59:59;10.02;;;6.38;;
46158;SDS011;31888;44.512;26.104;2023-07-31T14:02:25;6.50;;;5.90;;
46158;SDS011;31888;44.512;26.104;2023-07-31T14:04:49;8.45;;;6.10;;
46158;SDS011;31888;44.512;26.104;2023-07-31T14:07:14;6.68;;;5.97;;